sensor_id;sensor_type;location;lat;lon;timestamp;pressure;altitude;pressure_sealevel;temperature;humidity
60041;BME280;60036;53.468;-2.266;2022-11-04T00:01:26;99933.61;;;17.92;26.08
60041;BME280;60036;53.468;-2.266;2022-11-04T00:03:51;99938.81;;;18.19;26.02
60041;BME280;60036;53.468;-2.266;2022-11-04T00:06:16;99944.65;;;18.08;26.05
60041;BME280;60036;53.468;-2.266;2022-11-04T00:08:41;99953.63;;;18.10;26.03
60041;BME280;60036;53.468;-2.266;2022-11-04T00:11:06;99956.71;;;18.18;26.05
60041;BME280;60036;53.468;-2.266;2022-11-04T00:13:32;99958.39;;;18.08;26.05
60041;BME280;60036;53.468;-2.266;2022-11-04T00:16:00;99965.66;;;18.02;26.02
60041;BME280;60036;53.468;-2.266;2022-11-04T00:18:22;99972.31;;;17.92;26.02
60041;BME280;60036;53.468;-2.266;2022-11-04T00:20:47;99971.94;;;18.04;25.99
60041;BME280;60036;53.468;-2.266;2022-11-04T00:23:13;99974.60;;;17.94;25.97
60041;BME280;60036;53.468;-2.266;2022-11-04T00:25:38;99978.46;;;18.08;26.02
60041;BME280;60036;53.468;-2.266;2022-11-04T00:28:06;99985.39;;;18.18;25.95
60041;BME280;60036;53.468;-2.266;2022-11-04T00:30:29;99992.20;;;18.06;25.96
60041;BME280;60036;53.468;-2.266;2022-11-04T00:32:54;99995.06;;;18.31;25.94
60041;BME280;60036;53.468;-2.266;2022-11-04T00:35:20;99997.97;;;18.11;25.93
60041;BME280;60036;53.468;-2.266;2022-11-04T00:37:45;100005.76;;;18.19;25.94
60041;BME280;60036;53.468;-2.266;2022-11-04T00:40:13;100008.19;;;17.99;26.00
60041;BME280;60036;53.468;-2.266;2022-11-04T00:42:35;100011.65;;;18.14;25.97
60041;BME280;60036;53.468;-2.266;2022-11-04T00:45:01;100020.15;;;18.14;26.02
60041;BME280;60036;53.468;-2.266;2022-11-04T00:47:25;100023.62;;;17.79;26.03
60041;BME280;60036;53.468;-2.266;2022-11-04T00:49:51;100026.60;;;18.03;26.01
60041;BME280;60036;53.468;-2.266;2022-11-04T00:52:17;100033.27;;;18.04;25.94
60041;BME280;60036;53.468;-2.266;2022-11-04T00:54:41;100036.69;;;18.17;26.00
60041;BME280;60036;53.468;-2.266;2022-11-04T00:57:08;100038.82;;;18.12;26.01
60041;BME280;60036;53.468;-2.266;2022-11-04T00:59:32;100042.38;;;18.05;26.00
60041;BME280;60036;53.468;-2.266;2022-11-04T01:01:57;100045.51;;;18.12;25.95
60041;BME280;60036;53.468;-2.266;2022-11-04T01:04:23;100055.50;;;18.15;25.99
60041;BME280;60036;53.468;-2.266;2022-11-04T01:06:48;100065.21;;;18.13;25.99
60041;BME280;60036;53.468;-2.266;2022-11-04T01:09:13;100068.15;;;18.17;25.98
60041;BME280;60036;53.468;-2.266;2022-11-04T01:11:38;100071.46;;;18.04;26.04
60041;BME280;60036;53.468;-2.266;2022-11-04T01:14:04;100077.65;;;18.15;25.99
60041;BME280;60036;53.468;-2.266;2022-11-04T01:16:29;100077.39;;;18.06;26.13
60041;BME280;60036;53.468;-2.266;2022-11-04T01:18:55;100079.52;;;18.06;25.96
60041;BME280;60036;53.468;-2.266;2022-11-04T01:21:19;100085.10;;;18.15;25.96
60041;BME280;60036;53.468;-2.266;2022-11-04T01:23:45;100092.98;;;18.17;25.96
60041;BME280;60036;53.468;-2.266;2022-11-04T01:26:13;100093.15;;;18.01;25.99
60041;BME280;60036;53.468;-2.266;2022-11-04T01:28:35;100097.22;;;18.02;25.98
60041;BME280;60036;53.468;-2.266;2022-11-04T01:31:04;100098.23;;;18.04;25.98
60041;BME280;60036;53.468;-2.266;2022-11-04T01:33:26;100101.85;;;17.96;25.99
60041;BME280;60036;53.468;-2.266;2022-11-04T01:35:51;100103.77;;;18.12;25.97
60041;BME280;60036;53.468;-2.266;2022-11-04T01:38:16;100103.40;;;18.01;25.95
60041;BME280;60036;53.468;-2.266;2022-11-04T01:40:41;100106.82;;;18.05;25.93
60041;BME280;60036;53.468;-2.266;2022-11-04T01:43:11;100108.36;;;18.04;25.95
60041;BME280;60036;53.468;-2.266;2022-11-04T01:45:31;100106.51;;;18.03;26.00
60041;BME280;60036;53.468;-2.266;2022-11-04T01:48:00;100109.60;;;18.05;25.99
60041;BME280;60036;53.468;-2.266;2022-11-04T01:50:24;100112.60;;;18.17;26.01
60041;BME280;60036;53.468;-2.266;2022-11-04T01:52:51;100117.05;;;17.90;25.99
60041;BME280;60036;53.468;-2.266;2022-11-04T01:55:15;100123.64;;;18.24;25.99
60041;BME280;60036;53.468;-2.266;2022-11-04T01:57:41;100122.42;;;18.12;25.94
60041;BME280;60036;53.468;-2.266;2022-11-04T02:00:06;100125.41;;;18.09;25.90
60041;BME280;60036;53.468;-2.266;2022-11-04T02:02:28;100125.34;;;18.09;25.93
60041;BME280;60036;53.468;-2.266;2022-11-04T02:04:54;100123.70;;;18.09;25.92
60041;BME280;60036;53.468;-2.266;2022-11-04T02:07:19;100128.09;;;17.94;25.91
60041;BME280;60036;53.468;-2.266;2022-11-04T02:09:44;100128.58;;;17.78;25.93
60041;BME280;60036;53.468;-2.266;2022-11-04T02:12:09;100137.07;;;18.15;25.95
60041;BME280;60036;53.468;-2.266;2022-11-04T02:14:35;100135.46;;;18.03;25.93
60041;BME280;60036;53.468;-2.266;2022-11-04T02:17:07;100138.83;;;18.10;25.91
60041;BME280;60036;53.468;-2.266;2022-11-04T02:19:42;100137.97;;;18.11;25.89
60041;BME280;60036;53.468;-2.266;2022-11-04T02:22:08;100141.53;;;17.89;25.95
60041;BME280;60036;53.468;-2.266;2022-11-04T02:24:39;100146.96;;;17.96;25.99
60041;BME280;60036;53.468;-2.266;2022-11-04T02:27:02;100153.52;;;18.06;25.90
60041;BME280;60036;53.468;-2.266;2022-11-04T02:29:16;100165.35;;;18.35;25.87
60041;BME280;60036;53.468;-2.266;2022-11-04T02:31:36;100168.73;;;18.06;25.89
60041;BME280;60036;53.468;-2.266;2022-11-04T02:34:00;100172.53;;;18.01;25.92
60041;BME280;60036;53.468;-2.266;2022-11-04T02:36:26;100175.78;;;18.00;25.87
60041;BME280;60036;53.468;-2.266;2022-11-04T02:38:50;100179.51;;;18.05;25.98
60041;BME280;60036;53.468;-2.266;2022-11-04T02:41:15;100179.62;;;17.97;25.91
60041;BME280;60036;53.468;-2.266;2022-11-04T02:43:44;100177.95;;;18.12;25.95
60041;BME280;60036;53.468;-2.266;2022-11-04T02:46:05;100181.40;;;17.92;25.93
60041;BME280;60036;53.468;-2.266;2022-11-04T02:48:34;100186.33;;;17.49;25.93
60041;BME280;60036;53.468;-2.266;2022-11-04T02:50:58;100188.69;;;17.94;25.92
60041;BME280;60036;53.468;-2.266;2022-11-04T02:53:22;100190.72;;;18.15;25.86
60041;BME280;60036;53.468;-2.266;2022-11-04T02:55:45;100192.50;;;18.08;25.83
60041;BME280;60036;53.468;-2.266;2022-11-04T02:58:12;100191.13;;;17.82;25.89
60041;BME280;60036;53.468;-2.266;2022-11-04T03:00:34;100195.05;;;18.01;25.87
60041;BME280;60036;53.468;-2.266;2022-11-04T03:03:01;100201.67;;;18.02;25.85
60041;BME280;60036;53.468;-2.266;2022-11-04T03:05:26;100206.34;;;17.86;25.88
60041;BME280;60036;53.468;-2.266;2022-11-04T03:07:50;100211.10;;;17.89;25.90
60041;BME280;60036;53.468;-2.266;2022-11-04T03:10:17;100215.38;;;18.21;25.85
60041;BME280;60036;53.468;-2.266;2022-11-04T03:12:43;100213.74;;;17.90;25.90
60041;BME280;60036;53.468;-2.266;2022-11-04T03:15:07;100217.11;;;17.79;25.89
60041;BME280;60036;53.468;-2.266;2022-11-04T03:17:33;100219.79;;;17.76;25.87
60041;BME280;60036;53.468;-2.266;2022-11-04T03:19:56;100227.57;;;17.94;25.88
60041;BME280;60036;53.468;-2.266;2022-11-04T03:22:21;100236.72;;;18.03;25.85
60041;BME280;60036;53.468;-2.266;2022-11-04T03:24:46;100244.24;;;17.96;25.84
60041;BME280;60036;53.468;-2.266;2022-11-04T03:27:15;100251.58;;;17.92;25.85
60041;BME280;60036;53.468;-2.266;2022-11-04T03:29:37;100250.62;;;18.02;25.83
60041;BME280;60036;53.468;-2.266;2022-11-04T03:32:05;100257.03;;;17.87;25.87
60041;BME280;60036;53.468;-2.266;2022-11-04T03:34:25;100257.41;;;18.04;25.81
60041;BME280;60036;53.468;-2.266;2022-11-04T03:36:52;100267.01;;;17.83;25.82
60041;BME280;60036;53.468;-2.266;2022-11-04T03:39:16;100274.41;;;17.90;25.90
60041;BME280;60036;53.468;-2.266;2022-11-04T03:41:43;100279.57;;;17.84;25.90
60041;BME280;60036;53.468;-2.266;2022-11-04T03:44:06;100284.92;;;17.85;25.88
60041;BME280;60036;53.468;-2.266;2022-11-04T03:46:31;100288.29;;;17.83;25.90
60041;BME280;60036;53.468;-2.266;2022-11-04T03:48:57;100294.95;;;17.87;25.85
60041;BME280;60036;53.468;-2.266;2022-11-04T03:51:21;100295.15;;;17.95;25.81
60041;BME280;60036;53.468;-2.266;2022-11-04T03:53:52;100297.08;;;17.95;25.80
60041;BME280;60036;53.468;-2.266;2022-11-04T03:56:27;100295.69;;;17.91;25.81
60041;BME280;60036;53.468;-2.266;2022-11-04T03:58:44;100296.98;;;18.03;25.75
60041;BME280;60036;53.468;-2.266;2022-11-04T04:01:09;100295.64;;;17.94;25.79
60041;BME280;60036;53.468;-2.266;2022-11-04T04:03:31;100302.20;;;17.94;25.76
60041;BME280;60036;53.468;-2.266;2022-11-04T04:05:55;100305.94;;;17.71;25.78
60041;BME280;60036;53.468;-2.266;2022-11-04T04:08:27;100312.58;;;18.23;25.74
60041;BME280;60036;53.468;-2.266;2022-11-04T04:10:51;100318.08;;;17.96;25.75
60041;BME280;60036;53.468;-2.266;2022-11-04T04:13:15;100323.41;;;17.85;25.84
60041;BME280;60036;53.468;-2.266;2022-11-04T04:15:41;100320.28;;;17.77;25.81
60041;BME280;60036;53.468;-2.266;2022-11-04T04:18:00;100328.65;;;17.99;25.73
60041;BME280;60036;53.468;-2.266;2022-11-04T04:20:25;100335.29;;;17.70;25.85
60041;BME280;60036;53.468;-2.266;2022-11-04T04:22:51;100340.92;;;17.68;25.81
60041;BME280;60036;53.468;-2.266;2022-11-04T04:25:14;100351.35;;;17.98;25.79
60041;BME280;60036;53.468;-2.266;2022-11-04T04:27:39;100357.87;;;17.76;25.80
60041;BME280;60036;53.468;-2.266;2022-11-04T04:30:06;100362.97;;;17.97;25.72
60041;BME280;60036;53.468;-2.266;2022-11-04T04:32:34;100374.68;;;17.60;25.76
60041;BME280;60036;53.468;-2.266;2022-11-04T04:34:54;100379.54;;;17.87;25.72
60041;BME280;60036;53.468;-2.266;2022-11-04T04:37:22;100387.96;;;18.06;25.70
60041;BME280;60036;53.468;-2.266;2022-11-04T04:39:47;100393.88;;;17.92;25.71
60041;BME280;60036;53.468;-2.266;2022-11-04T04:42:10;100398.94;;;18.12;25.64
60041;BME280;60036;53.468;-2.266;2022-11-04T04:44:35;100405.52;;;18.16;25.74
60041;BME280;60036;53.468;-2.266;2022-11-04T04:47:01;100419.42;;;18.02;25.61
60041;BME280;60036;53.468;-2.266;2022-11-04T04:49:25;100423.24;;;18.01;25.65
60041;BME280;60036;53.468;-2.266;2022-11-04T04:51:51;100427.47;;;17.81;25.69
60041;BME280;60036;53.468;-2.266;2022-11-04T04:54:15;100438.93;;;17.79;25.77
60041;BME280;60036;53.468;-2.266;2022-11-04T04:56:41;100446.88;;;17.80;25.78
60041;BME280;60036;53.468;-2.266;2022-11-04T04:59:06;100449.92;;;17.91;25.68
60041;BME280;60036;53.468;-2.266;2022-11-04T05:01:31;100456.00;;;17.77;25.71
60041;BME280;60036;53.468;-2.266;2022-11-04T05:03:56;100459.02;;;17.95;25.72
60041;BME280;60036;53.468;-2.266;2022-11-04T05:06:21;100455.62;;;17.82;25.74
60041;BME280;60036;53.468;-2.266;2022-11-04T05:08:46;100460.46;;;17.81;25.74
60041;BME280;60036;53.468;-2.266;2022-11-04T05:11:12;100473.27;;;17.88;25.76
60041;BME280;60036;53.468;-2.266;2022-11-04T05:13:37;100483.07;;;17.41;25.72
60041;BME280;60036;53.468;-2.266;2022-11-04T05:16:03;100487.88;;;17.80;25.69
60041;BME280;60036;53.468;-2.266;2022-11-04T05:18:27;100496.50;;;17.78;25.72
60041;BME280;60036;53.468;-2.266;2022-11-04T05:20:52;100498.32;;;17.84;25.69
60041;BME280;60036;53.468;-2.266;2022-11-04T05:23:17;100503.29;;;18.02;25.62
60041;BME280;60036;53.468;-2.266;2022-11-04T05:25:42;100507.93;;;17.79;25.71
60041;BME280;60036;53.468;-2.266;2022-11-04T05:28:07;100511.26;;;17.77;25.69
60041;BME280;60036;53.468;-2.266;2022-11-04T05:30:33;100511.55;;;17.77;25.71
60041;BME280;60036;53.468;-2.266;2022-11-04T05:32:58;100504.83;;;17.83;25.66
60041;BME280;60036;53.468;-2.266;2022-11-04T05:35:23;100503.35;;;17.71;25.73
60041;BME280;60036;53.468;-2.266;2022-11-04T05:37:48;100509.93;;;18.09;25.65
60041;BME280;60036;53.468;-2.266;2022-11-04T05:40:13;100518.24;;;17.85;25.65
60041;BME280;60036;53.468;-2.266;2022-11-04T05:42:38;100528.42;;;17.82;25.65
60041;BME280;60036;53.468;-2.266;2022-11-04T05:45:04;100536.17;;;17.96;25.45
60041;BME280;60036;53.468;-2.266;2022-11-04T05:47:28;100539.38;;;18.22;25.22
60041;BME280;60036;53.468;-2.266;2022-11-04T05:49:54;100544.96;;;18.36;25.12
60041;BME280;60036;53.468;-2.266;2022-11-04T05:52:19;100549.60;;;18.34;25.03
60041;BME280;60036;53.468;-2.266;2022-11-04T05:54:45;100552.16;;;18.19;25.00
60041;BME280;60036;53.468;-2.266;2022-11-04T05:57:10;100552.45;;;18.12;24.84
60041;BME280;60036;53.468;-2.266;2022-11-04T05:59:35;100557.35;;;18.45;24.90
60041;BME280;60036;53.468;-2.266;2022-11-04T06:02:00;100561.55;;;18.72;24.84
60041;BME280;60036;53.468;-2.266;2022-11-04T06:04:25;100561.54;;;18.57;24.87
60041;BME280;60036;53.468;-2.266;2022-11-04T06:06:50;100565.59;;;18.47;24.85
60041;BME280;60036;53.468;-2.266;2022-11-04T06:09:15;100565.18;;;18.64;24.89
60041;BME280;60036;53.468;-2.266;2022-11-04T06:11:40;100563.46;;;18.43;24.88
60041;BME280;60036;53.468;-2.266;2022-11-04T06:14:06;100564.96;;;18.21;24.86
60041;BME280;60036;53.468;-2.266;2022-11-04T06:16:31;100566.67;;;18.33;24.89
60041;BME280;60036;53.468;-2.266;2022-11-04T06:18:56;100575.53;;;18.16;24.83
60041;BME280;60036;53.468;-2.266;2022-11-04T06:21:28;100581.02;;;18.39;24.79
60041;BME280;60036;53.468;-2.266;2022-11-04T06:23:46;100586.08;;;18.50;24.82
60041;BME280;60036;53.468;-2.266;2022-11-04T06:26:12;100589.89;;;18.17;24.72
60041;BME280;60036;53.468;-2.266;2022-11-04T06:28:36;100590.67;;;18.37;24.60
60041;BME280;60036;53.468;-2.266;2022-11-04T06:31:04;100595.63;;;18.11;24.73
60041;BME280;60036;53.468;-2.266;2022-11-04T06:33:27;100598.96;;;17.96;24.62
60041;BME280;60036;53.468;-2.266;2022-11-04T06:35:56;100603.84;;;18.67;24.68
60041;BME280;60036;53.468;-2.266;2022-11-04T06:38:28;100607.28;;;18.57;24.54
60041;BME280;60036;53.468;-2.266;2022-11-04T06:40:42;100612.13;;;18.42;24.53
60041;BME280;60036;53.468;-2.266;2022-11-04T06:43:08;100615.88;;;18.32;24.62
60041;BME280;60036;53.468;-2.266;2022-11-04T06:45:33;100619.36;;;18.53;24.53
60041;BME280;60036;53.468;-2.266;2022-11-04T06:47:58;100621.05;;;18.40;24.54
60041;BME280;60036;53.468;-2.266;2022-11-04T06:50:23;100627.80;;;18.10;24.65
60041;BME280;60036;53.468;-2.266;2022-11-04T06:52:48;100636.14;;;18.42;24.55
60041;BME280;60036;53.468;-2.266;2022-11-04T06:55:14;100638.39;;;18.58;24.55
60041;BME280;60036;53.468;-2.266;2022-11-04T06:57:38;100644.18;;;18.15;24.57
60041;BME280;60036;53.468;-2.266;2022-11-04T07:00:04;100650.80;;;18.27;24.60
60041;BME280;60036;53.468;-2.266;2022-11-04T07:02:29;100655.41;;;18.53;24.52
60041;BME280;60036;53.468;-2.266;2022-11-04T07:04:54;100660.23;;;18.33;24.53
60041;BME280;60036;53.468;-2.266;2022-11-04T07:07:19;100662.80;;;18.20;24.44
60041;BME280;60036;53.468;-2.266;2022-11-04T07:09:44;100663.23;;;18.20;24.44
60041;BME280;60036;53.468;-2.266;2022-11-04T07:12:10;100664.96;;;18.14;24.37
60041;BME280;60036;53.468;-2.266;2022-11-04T07:14:35;100670.88;;;18.38;24.29
60041;BME280;60036;53.468;-2.266;2022-11-04T07:17:00;100681.77;;;18.31;24.37
60041;BME280;60036;53.468;-2.266;2022-11-04T07:19:26;100692.56;;;18.36;24.44
60041;BME280;60036;53.468;-2.266;2022-11-04T07:21:51;100694.05;;;18.38;24.38
60041;BME280;60036;53.468;-2.266;2022-11-04T07:24:16;100696.63;;;18.31;24.50
60041;BME280;60036;53.468;-2.266;2022-11-04T07:26:41;100699.42;;;18.05;24.47
60041;BME280;60036;53.468;-2.266;2022-11-04T07:29:06;100705.06;;;18.71;24.39
60041;BME280;60036;53.468;-2.266;2022-11-04T07:31:32;100708.40;;;18.24;24.39
60041;BME280;60036;53.468;-2.266;2022-11-04T07:33:57;100708.27;;;18.20;24.39
60041;BME280;60036;53.468;-2.266;2022-11-04T07:36:24;100711.86;;;18.18;24.34
60041;BME280;60036;53.468;-2.266;2022-11-04T07:38:48;100715.42;;;18.16;24.42
60041;BME280;60036;53.468;-2.266;2022-11-04T07:41:13;100722.02;;;18.26;24.45
60041;BME280;60036;53.468;-2.266;2022-11-04T07:43:38;100724.96;;;17.95;24.47
60041;BME280;60036;53.468;-2.266;2022-11-04T07:46:05;100721.70;;;17.91;24.61
60041;BME280;60036;53.468;-2.266;2022-11-04T07:48:28;100726.97;;;18.15;24.46
60041;BME280;60036;53.468;-2.266;2022-11-04T07:50:55;100732.11;;;18.13;24.44
60041;BME280;60036;53.468;-2.266;2022-11-04T07:53:19;100736.73;;;18.13;24.48
60041;BME280;60036;53.468;-2.266;2022-11-04T07:55:44;100738.50;;;18.06;24.36
60041;BME280;60036;53.468;-2.266;2022-11-04T07:58:09;100740.67;;;18.61;24.31
60041;BME280;60036;53.468;-2.266;2022-11-04T08:00:34;100742.67;;;18.68;24.35
60041;BME280;60036;53.468;-2.266;2022-11-04T08:03:00;100743.88;;;18.29;24.31
60041;BME280;60036;53.468;-2.266;2022-11-04T08:05:25;100746.72;;;18.35;24.33
60041;BME280;60036;53.468;-2.266;2022-11-04T08:07:51;100744.90;;;18.27;24.33
60041;BME280;60036;53.468;-2.266;2022-11-04T08:10:17;100750.83;;;18.13;24.33
60041;BME280;60036;53.468;-2.266;2022-11-04T08:12:42;100749.34;;;18.23;24.30
60041;BME280;60036;53.468;-2.266;2022-11-04T08:15:13;100755.48;;;18.13;24.34
60041;BME280;60036;53.468;-2.266;2022-11-04T08:17:32;100764.18;;;17.79;24.35
60041;BME280;60036;53.468;-2.266;2022-11-04T08:19:58;100764.29;;;18.15;24.31
60041;BME280;60036;53.468;-2.266;2022-11-04T08:22:24;100765.79;;;17.82;24.37
60041;BME280;60036;53.468;-2.266;2022-11-04T08:24:48;100763.87;;;18.20;24.46
60041;BME280;60036;53.468;-2.266;2022-11-04T08:27:13;100766.86;;;17.43;24.72
60041;BME280;60036;53.468;-2.266;2022-11-04T08:29:38;100774.13;;;17.96;24.47
60041;BME280;60036;53.468;-2.266;2022-11-04T08:32:04;100779.23;;;18.13;24.40
60041;BME280;60036;53.468;-2.266;2022-11-04T08:34:30;100783.29;;;18.32;24.30
60041;BME280;60036;53.468;-2.266;2022-11-04T08:36:54;100789.96;;;17.18;24.93
60041;BME280;60036;53.468;-2.266;2022-11-04T08:39:19;100791.45;;;17.97;24.69
60041;BME280;60036;53.468;-2.266;2022-11-04T08:41:44;100796.19;;;18.00;24.69
60041;BME280;60036;53.468;-2.266;2022-11-04T08:44:10;100798.86;;;18.35;24.54
60041;BME280;60036;53.468;-2.266;2022-11-04T08:46:36;100798.23;;;18.47;24.35
60041;BME280;60036;53.468;-2.266;2022-11-04T08:48:59;100799.80;;;18.37;24.29
60041;BME280;60036;53.468;-2.266;2022-11-04T08:51:26;100801.50;;;14.33;24.38
60041;BME280;60036;53.468;-2.266;2022-11-04T08:53:50;100804.83;;;17.71;24.31
60041;BME280;60036;53.468;-2.266;2022-11-04T08:56:17;100803.77;;;18.60;24.19
60041;BME280;60036;53.468;-2.266;2022-11-04T08:58:40;100799.86;;;18.91;24.15
60041;BME280;60036;53.468;-2.266;2022-11-04T09:01:05;100805.23;;;18.67;24.08
60041;BME280;60036;53.468;-2.266;2022-11-04T09:03:30;100809.01;;;18.48;24.20
60041;BME280;60036;53.468;-2.266;2022-11-04T09:05:56;100810.39;;;18.57;24.15
60041;BME280;60036;53.468;-2.266;2022-11-04T09:08:21;100809.11;;;18.71;24.20
60041;BME280;60036;53.468;-2.266;2022-11-04T09:10:46;100806.39;;;18.97;24.14
60041;BME280;60036;53.468;-2.266;2022-11-04T09:13:12;100804.48;;;18.91;24.10
60041;BME280;60036;53.468;-2.266;2022-11-04T09:15:42;100807.48;;;18.70;24.12
60041;BME280;60036;53.468;-2.266;2022-11-04T09:18:02;100805.11;;;18.92;24.30
60041;BME280;60036;53.468;-2.266;2022-11-04T09:20:28;100810.09;;;18.61;24.25
60041;BME280;60036;53.468;-2.266;2022-11-04T09:22:55;100812.52;;;18.75;24.17
60041;BME280;60036;53.468;-2.266;2022-11-04T09:25:18;100808.69;;;18.76;24.23
60041;BME280;60036;53.468;-2.266;2022-11-04T09:27:44;100806.24;;;19.00;24.19
60041;BME280;60036;53.468;-2.266;2022-11-04T09:30:11;100809.44;;;18.91;24.18
60041;BME280;60036;53.468;-2.266;2022-11-04T09:32:35;100816.14;;;18.76;24.25
60041;BME280;60036;53.468;-2.266;2022-11-04T09:35:00;100823.64;;;19.13;24.26
60041;BME280;60036;53.468;-2.266;2022-11-04T09:37:25;100830.93;;;18.55;24.47
60041;BME280;60036;53.468;-2.266;2022-11-04T09:39:51;100829.72;;;18.40;24.63
60041;BME280;60036;53.468;-2.266;2022-11-04T09:42:43;100825.04;;;18.74;24.69
60041;BME280;60036;53.468;-2.266;2022-11-04T09:44:47;100823.16;;;18.77;24.63
60041;BME280;60036;53.468;-2.266;2022-11-04T09:47:08;100827.53;;;18.73;24.67
60041;BME280;60036;53.468;-2.266;2022-11-04T09:49:36;100837.11;;;18.98;24.67
60041;BME280;60036;53.468;-2.266;2022-11-04T09:51:58;100838.36;;;18.20;24.82
60041;BME280;60036;53.468;-2.266;2022-11-04T09:54:25;100847.22;;;18.49;24.90
60041;BME280;60036;53.468;-2.266;2022-11-04T09:56:49;100856.24;;;18.61;24.91
60041;BME280;60036;53.468;-2.266;2022-11-04T09:59:19;100862.63;;;18.43;24.85
60041;BME280;60036;53.468;-2.266;2022-11-04T10:01:45;100865.74;;;18.14;25.00
60041;BME280;60036;53.468;-2.266;2022-11-04T10:04:15;100866.11;;;18.75;24.88
60041;BME280;60036;53.468;-2.266;2022-11-04T10:06:36;100872.16;;;18.87;24.58
60041;BME280;60036;53.468;-2.266;2022-11-04T10:09:04;100875.47;;;19.28;24.72
60041;BME280;60036;53.468;-2.266;2022-11-04T10:11:24;100876.63;;;19.07;24.75
60041;BME280;60036;53.468;-2.266;2022-11-04T10:13:54;100878.02;;;18.81;24.70
60041;BME280;60036;53.468;-2.266;2022-11-04T10:16:21;100879.48;;;18.92;24.79
60041;BME280;60036;53.468;-2.266;2022-11-04T10:18:47;100886.63;;;18.88;24.78
60041;BME280;60036;53.468;-2.266;2022-11-04T10:21:06;100890.34;;;18.97;24.93
60041;BME280;60036;53.468;-2.266;2022-11-04T10:23:33;100874.61;;;18.57;24.75
60041;BME280;60036;53.468;-2.266;2022-11-04T10:25:55;100883.62;;;18.82;24.82
60041;BME280;60036;53.468;-2.266;2022-11-04T10:28:18;100893.97;;;18.73;24.84
60041;BME280;60036;53.468;-2.266;2022-11-04T10:30:42;100899.85;;;19.21;24.82
60041;BME280;60036;53.468;-2.266;2022-11-04T10:33:11;100896.12;;;18.77;24.78
60041;BME280;60036;53.468;-2.266;2022-11-04T10:35:35;100897.20;;;18.21;24.80
60041;BME280;60036;53.468;-2.266;2022-11-04T10:38:00;100904.69;;;18.56;24.69
60041;BME280;60036;53.468;-2.266;2022-11-04T10:40:24;100911.31;;;18.95;24.63
60041;BME280;60036;53.468;-2.266;2022-11-04T10:42:47;100911.53;;;18.48;24.62
60041;BME280;60036;53.468;-2.266;2022-11-04T10:45:13;100910.63;;;18.79;24.61
60041;BME280;60036;53.468;-2.266;2022-11-04T10:47:44;100911.60;;;18.32;24.72
60041;BME280;60036;53.468;-2.266;2022-11-04T10:50:21;100902.30;;;18.44;24.65
60041;BME280;60036;53.468;-2.266;2022-11-04T10:52:31;100908.37;;;18.44;24.73
60041;BME280;60036;53.468;-2.266;2022-11-04T10:54:54;100920.57;;;18.61;24.67
60041;BME280;60036;53.468;-2.266;2022-11-04T10:57:21;100922.11;;;18.46;24.59
60041;BME280;60036;53.468;-2.266;2022-11-04T10:59:53;100911.66;;;18.46;24.55
60041;BME280;60036;53.468;-2.266;2022-11-04T11:02:09;100914.78;;;17.93;25.03
60041;BME280;60036;53.468;-2.266;2022-11-04T11:04:36;100912.61;;;18.29;24.56
60041;BME280;60036;53.468;-2.266;2022-11-04T11:07:02;100902.84;;;18.91;24.64
60041;BME280;60036;53.468;-2.266;2022-11-04T11:09:27;100898.79;;;18.53;24.52
60041;BME280;60036;53.468;-2.266;2022-11-04T11:11:52;100891.48;;;18.93;24.55
60041;BME280;60036;53.468;-2.266;2022-11-04T11:14:19;100891.63;;;18.59;24.54
60041;BME280;60036;53.468;-2.266;2022-11-04T11:16:41;100897.04;;;18.43;24.56
60041;BME280;60036;53.468;-2.266;2022-11-04T11:19:13;100896.38;;;18.84;24.59
60041;BME280;60036;53.468;-2.266;2022-11-04T11:21:41;100896.07;;;18.82;24.52
60041;BME280;60036;53.468;-2.266;2022-11-04T11:24:12;100896.03;;;18.72;24.65
60041;BME280;60036;53.468;-2.266;2022-11-04T11:26:29;100896.16;;;18.53;24.70
60041;BME280;60036;53.468;-2.266;2022-11-04T11:28:50;100899.28;;;18.81;24.62
60041;BME280;60036;53.468;-2.266;2022-11-04T11:31:14;100897.53;;;18.62;24.60
60041;BME280;60036;53.468;-2.266;2022-11-04T11:33:45;100896.51;;;18.90;24.53
60041;BME280;60036;53.468;-2.266;2022-11-04T11:36:07;100898.10;;;18.12;24.58
60041;BME280;60036;53.468;-2.266;2022-11-04T11:38:30;100907.38;;;18.63;24.65
60041;BME280;60036;53.468;-2.266;2022-11-04T11:41:04;100907.85;;;19.07;24.75
60041;BME280;60036;53.468;-2.266;2022-11-04T11:43:22;100901.78;;;18.10;24.86
60041;BME280;60036;53.468;-2.266;2022-11-04T11:45:46;100901.51;;;18.94;24.68
60041;BME280;60036;53.468;-2.266;2022-11-04T11:48:27;100905.53;;;18.35;24.71
60041;BME280;60036;53.468;-2.266;2022-11-04T11:50:34;100910.28;;;18.36;24.67
60041;BME280;60036;53.468;-2.266;2022-11-04T11:53:13;100907.97;;;19.04;24.66
60041;BME280;60036;53.468;-2.266;2022-11-04T11:55:26;100909.93;;;18.99;24.60
60041;BME280;60036;53.468;-2.266;2022-11-04T11:57:57;100916.66;;;19.09;24.54
60041;BME280;60036;53.468;-2.266;2022-11-04T12:00:16;100928.14;;;18.97;24.59
60041;BME280;60036;53.468;-2.266;2022-11-04T12:02:46;100934.96;;;18.78;24.55
60041;BME280;60036;53.468;-2.266;2022-11-04T12:05:08;100931.11;;;18.83;24.22
60041;BME280;60036;53.468;-2.266;2022-11-04T12:07:37;100932.84;;;18.64;24.11
60041;BME280;60036;53.468;-2.266;2022-11-04T12:10:01;100938.88;;;18.71;24.31
60041;BME280;60036;53.468;-2.266;2022-11-04T12:12:36;100938.87;;;19.04;24.23
60041;BME280;60036;53.468;-2.266;2022-11-04T12:14:56;100927.06;;;18.95;24.31
60041;BME280;60036;53.468;-2.266;2022-11-04T12:17:23;100929.33;;;18.78;24.12
60041;BME280;60036;53.468;-2.266;2022-11-04T12:19:50;100930.04;;;18.74;24.16
60041;BME280;60036;53.468;-2.266;2022-11-04T12:22:06;100935.94;;;18.60;24.17
60041;BME280;60036;53.468;-2.266;2022-11-04T12:24:34;100937.74;;;18.92;24.06
60041;BME280;60036;53.468;-2.266;2022-11-04T12:27:00;100931.00;;;18.75;23.86
60041;BME280;60036;53.468;-2.266;2022-11-04T12:29:30;100923.43;;;18.49;24.07